createdAt,value
2017-01-08T00:00:08.233Z,3.41
2017-01-08T00:00:48.738Z,3.41
2017-01-08T00:01:29.229Z,3.41
2017-01-08T00:02:09.731Z,3.56
2017-01-08T00:02:50.212Z,3.45
2017-01-08T00:03:30.748Z,3.41
2017-01-08T00:04:11.223Z,3.45
2017-01-08T00:04:51.709Z,3.45
2017-01-08T00:05:32.209Z,3.4
2017-01-08T00:06:12.651Z,3.51
2017-01-08T00:06:53.156Z,3.48
2017-01-08T00:07:33.642Z,3.47
2017-01-08T00:08:14.120Z,3.47
2017-01-08T00:08:54.611Z,3.5
2017-01-08T00:09:35.080Z,3.44
2017-01-08T00:10:15.605Z,3.44
2017-01-08T00:10:56.099Z,3.5
2017-01-08T00:11:36.566Z,3.48
2017-01-08T00:12:17.065Z,3.51
2017-01-08T00:12:57.561Z,3.5
2017-01-08T00:13:38.031Z,3.56
2017-01-08T00:14:18.531Z,3.55
2017-01-08T00:14:58.979Z,3.56
2017-01-08T00:15:39.440Z,3.58
2017-01-08T00:16:19.930Z,3.53
2017-01-08T00:17:00.408Z,3.58
2017-01-08T00:17:40.928Z,3.59
2017-01-08T00:18:21.436Z,3.58
2017-01-08T00:19:01.945Z,3.53
2017-01-08T00:19:42.414Z,3.47
2017-01-08T00:20:22.884Z,3.56
2017-01-08T00:21:03.416Z,3.58
2017-01-08T00:21:43.862Z,3.45
2017-01-08T00:22:24.993Z,3.56
2017-01-08T00:23:05.480Z,3.56
2017-01-08T00:23:45.953Z,3.48
2017-01-08T00:24:26.439Z,3.48
2017-01-08T00:25:06.946Z,3.51
2017-01-08T00:25:47.420Z,3.59
2017-01-08T00:26:27.903Z,3.5
2017-01-08T00:27:08.368Z,3.55
2017-01-08T00:27:48.850Z,3.59
2017-01-08T00:28:29.344Z,3.55
2017-01-08T00:29:09.853Z,3.56
2017-01-08T00:29:50.353Z,3.59
2017-01-08T00:30:30.845Z,3.55
2017-01-08T00:31:11.336Z,3.51
2017-01-08T00:31:51.816Z,3.6
2017-01-08T00:32:32.316Z,3.55
2017-01-08T00:33:12.800Z,3.53
2017-01-08T00:33:53.256Z,3.5
2017-01-08T00:34:33.737Z,3.53
2017-01-08T00:35:14.231Z,3.55
2017-01-08T00:35:54.712Z,3.55
2017-01-08T00:36:35.203Z,3.55
2017-01-08T00:37:15.724Z,3.56
2017-01-08T00:37:56.207Z,3.56
2017-01-08T00:38:36.711Z,3.53
2017-01-08T00:39:17.218Z,3.56
2017-01-08T00:39:57.674Z,3.56
2017-01-08T00:40:38.155Z,3.5
2017-01-08T00:41:18.644Z,3.56
2017-01-08T00:41:59.149Z,3.51
2017-01-08T00:42:39.622Z,3.56
2017-01-08T00:43:20.101Z,3.55
2017-01-08T00:44:00.673Z,3.55
2017-01-08T00:44:41.170Z,3.58
2017-01-08T00:45:21.656Z,3.56
2017-01-08T00:46:02.122Z,3.56
2017-01-08T00:46:42.617Z,3.6
2017-01-08T00:47:23.112Z,3.56
2017-01-08T00:48:03.581Z,3.63
2017-01-08T00:48:44.059Z,3.62
2017-01-08T00:49:24.598Z,3.55
2017-01-08T00:50:05.092Z,3.55
2017-01-08T00:50:45.584Z,3.55
2017-01-08T00:51:26.064Z,3.55
2017-01-08T00:52:06.564Z,3.59
2017-01-08T00:52:47.115Z,3.59
2017-01-08T00:53:27.630Z,3.59
2017-01-08T00:54:08.085Z,3.56
2017-01-08T00:54:48.604Z,3.6
2017-01-08T00:55:29.062Z,3.58
2017-01-08T00:56:09.576Z,3.59
2017-01-08T00:56:50.051Z,3.58
2017-01-08T00:57:30.535Z,3.59
2017-01-08T00:58:11.041Z,3.6
2017-01-08T00:58:51.508Z,3.56
2017-01-08T00:59:31.974Z,3.59
2017-01-08T01:00:12.457Z,3.59
2017-01-08T01:00:52.956Z,3.59
2017-01-08T01:01:33.417Z,3.55
2017-01-08T01:02:13.917Z,3.59
2017-01-08T01:02:54.386Z,3.58
2017-01-08T01:03:34.852Z,3.69
2017-01-08T01:04:15.330Z,3.58
2017-01-08T01:04:55.806Z,3.65
2017-01-08T01:05:36.266Z,3.65
2017-01-08T01:06:16.775Z,3.58
2017-01-08T01:06:57.300Z,3.59
2017-01-08T01:07:37.766Z,3.6
2017-01-08T01:08:18.250Z,3.51
2017-01-08T01:08:58.748Z,3.63
2017-01-08T01:09:39.226Z,3.63
2017-01-08T01:10:19.733Z,3.6
2017-01-08T01:11:00.208Z,3.56
2017-01-08T01:11:40.716Z,3.56
2017-01-08T01:12:21.175Z,3.65
2017-01-08T01:13:01.657Z,3.69
2017-01-08T01:13:42.130Z,3.7
2017-01-08T01:14:22.609Z,3.62
2017-01-08T01:15:03.090Z,3.76
2017-01-08T01:15:43.577Z,3.62
2017-01-08T01:16:24.093Z,3.63
2017-01-08T01:17:04.576Z,3.66
2017-01-08T01:17:45.048Z,3.66
2017-01-08T01:18:25.547Z,3.63
2017-01-08T01:19:06.008Z,3.7
2017-01-08T01:19:46.492Z,3.6
2017-01-08T01:20:26.977Z,3.65
2017-01-08T01:21:07.460Z,3.66
2017-01-08T01:21:47.947Z,3.66
2017-01-08T01:22:28.425Z,3.66
2017-01-08T01:23:08.907Z,3.56
2017-01-08T01:23:49.416Z,3.62
2017-01-08T01:24:29.900Z,3.63
2017-01-08T01:25:10.370Z,3.69
2017-01-08T01:25:50.884Z,3.65
2017-01-08T01:26:31.361Z,3.62
2017-01-08T01:27:11.846Z,3.7
2017-01-08T01:27:52.322Z,3.63
2017-01-08T01:28:32.830Z,3.68
2017-01-08T01:29:13.300Z,3.69
2017-01-08T01:29:53.772Z,3.69
2017-01-08T01:30:34.250Z,3.66
2017-01-08T01:31:14.752Z,3.62
2017-01-08T01:31:55.225Z,3.74
2017-01-08T01:32:35.720Z,3.69
2017-01-08T01:33:16.190Z,3.76
2017-01-08T01:33:56.665Z,3.73
2017-01-08T01:34:37.147Z,3.66
2017-01-08T01:35:17.629Z,3.74
2017-01-08T01:35:58.135Z,3.69
2017-01-08T01:36:38.619Z,3.8
2017-01-08T01:37:19.091Z,3.77
2017-01-08T01:37:59.607Z,3.69
2017-01-08T01:38:40.094Z,3.62
2017-01-08T01:39:20.588Z,3.7
2017-01-08T01:40:01.092Z,3.83
2017-01-08T01:40:41.573Z,3.78
2017-01-08T01:41:22.077Z,3.83
2017-01-08T01:42:02.574Z,3.84
2017-01-08T01:42:43.031Z,3.74
2017-01-08T01:43:23.530Z,3.77
2017-01-08T01:44:04.060Z,3.78
2017-01-08T01:44:44.536Z,3.78
2017-01-08T01:45:25.011Z,3.77
2017-01-08T01:46:05.520Z,3.81
2017-01-08T01:46:45.991Z,3.78
2017-01-08T01:47:26.463Z,3.8
2017-01-08T01:48:06.940Z,3.74
2017-01-08T01:48:47.448Z,3.81
2017-01-08T01:49:27.942Z,3.7
2017-01-08T01:50:08.446Z,3.83
2017-01-08T01:50:48.941Z,3.83
2017-01-08T01:51:29.417Z,3.8
2017-01-08T01:52:09.903Z,3.86
2017-01-08T01:52:50.395Z,3.78
2017-01-08T01:53:30.901Z,3.86
2017-01-08T01:54:11.365Z,3.84
2017-01-08T01:54:51.884Z,3.83
2017-01-08T01:55:32.382Z,3.87
2017-01-08T01:56:12.853Z,3.87
2017-01-08T01:56:53.349Z,3.87
2017-01-08T01:57:33.866Z,3.83
2017-01-08T01:58:14.333Z,3.84
2017-01-08T01:58:54.840Z,3.83
2017-01-08T01:59:35.316Z,3.76
2017-01-08T02:00:15.811Z,3.88
2017-01-08T02:00:56.326Z,3.84
2017-01-08T02:01:36.798Z,3.86
2017-01-08T02:02:17.301Z,3.86
2017-01-08T02:02:57.777Z,3.76
2017-01-08T02:03:38.238Z,3.8
2017-01-08T02:04:18.726Z,3.81
2017-01-08T02:04:59.202Z,3.8
2017-01-08T02:05:39.683Z,3.77
2017-01-08T02:06:20.187Z,3.76
2017-01-08T02:07:00.658Z,3.83
2017-01-08T02:07:41.144Z,3.81
2017-01-08T02:08:21.630Z,3.86
2017-01-08T02:09:02.135Z,3.86
2017-01-08T02:09:42.635Z,3.86
2017-01-08T02:10:23.122Z,3.78
2017-01-08T02:11:03.625Z,3.78
2017-01-08T02:11:44.092Z,3.74
2017-01-08T02:12:24.588Z,3.78
2017-01-08T02:13:05.053Z,3.73
2017-01-08T02:13:45.567Z,3.74
2017-01-08T02:14:26.070Z,3.76
2017-01-08T02:15:06.542Z,3.76
2017-01-08T02:15:47.032Z,3.74
2017-01-08T02:16:27.516Z,3.76
2017-01-08T02:17:08.058Z,3.65
2017-01-08T02:17:48.546Z,3.68
2017-01-08T02:18:29.031Z,3.65
2017-01-08T02:19:09.507Z,3.68
2017-01-08T02:19:49.992Z,3.66
2017-01-08T02:20:30.462Z,3.62
2017-01-08T02:21:10.955Z,3.6
2017-01-08T02:21:51.430Z,3.55
2017-01-08T02:22:31.942Z,3.56
2017-01-08T02:23:12.429Z,3.53
2017-01-08T02:23:52.937Z,3.56
2017-01-08T02:24:33.421Z,3.47
2017-01-08T02:25:13.936Z,3.59
2017-01-08T02:25:54.431Z,3.5
2017-01-08T02:26:34.942Z,3.45
2017-01-08T02:27:15.443Z,3.42
2017-01-08T02:27:55.908Z,3.41
2017-01-08T02:28:36.395Z,3.32
2017-01-08T02:29:16.909Z,3.5
2017-01-08T02:29:57.368Z,3.36
2017-01-08T02:30:37.866Z,3.4
2017-01-08T02:31:18.345Z,3.36
2017-01-08T02:31:58.811Z,3.29
2017-01-08T02:32:39.313Z,3.28
2017-01-08T02:33:19.801Z,3.23
2017-01-08T02:34:00.264Z,3.23
2017-01-08T02:34:40.747Z,3.19
2017-01-08T02:35:21.244Z,3.21
2017-01-08T02:36:01.709Z,3.26
2017-01-08T02:36:42.197Z,3.19
2017-01-08T02:37:22.696Z,3.26
2017-01-08T02:38:03.190Z,3.16
2017-01-08T02:38:43.667Z,3.18
2017-01-08T02:39:24.118Z,3.1
2017-01-08T02:40:04.619Z,3.16
2017-01-08T02:40:45.110Z,3.19
2017-01-08T02:41:25.601Z,3.22
2017-01-08T02:42:06.085Z,3.18
2017-01-08T02:42:46.568Z,3.22
2017-01-08T02:43:27.053Z,3.19
2017-01-08T02:44:07.529Z,3.19
2017-01-08T02:44:48.017Z,3.21
2017-01-08T02:45:28.495Z,3.18
2017-01-08T02:47:16.535Z,3.14
2017-01-08T02:47:56.904Z,3.18
2017-01-08T02:48:37.346Z,3.18
2017-01-08T02:49:17.840Z,3.19
2017-01-08T02:49:58.341Z,3.21
2017-01-08T02:50:38.840Z,3.22
2017-01-08T02:51:19.363Z,3.18
2017-01-08T02:51:59.828Z,3.18
2017-01-08T02:52:40.313Z,3.19
2017-01-08T02:53:20.809Z,3.18
2017-01-08T02:54:01.289Z,3.18
2017-01-08T02:54:41.751Z,3.19
2017-01-08T02:55:22.216Z,3.11
2017-01-08T02:56:02.710Z,3.07
2017-01-08T02:56:43.214Z,3.1
2017-01-08T02:57:23.688Z,3.13
2017-01-08T02:58:04.196Z,3.05
2017-01-08T02:58:44.661Z,3.1
2017-01-08T02:59:25.147Z,3.04
2017-01-08T03:00:05.622Z,3.11
2017-01-08T03:00:46.107Z,3.01
2017-01-08T03:01:26.589Z,2.98
2017-01-08T03:02:07.074Z,3
2017-01-08T03:02:47.543Z,2.95
2017-01-08T03:03:28.025Z,2.92
2017-01-08T03:04:08.529Z,2.89
2017-01-08T03:04:49.010Z,2.79
2017-01-08T03:05:29.513Z,2.75
2017-01-08T03:06:09.971Z,2.8
2017-01-08T03:06:50.461Z,2.75
2017-01-08T03:07:30.987Z,2.71
2017-01-08T03:08:11.475Z,2.75
2017-01-08T03:08:51.986Z,2.75
2017-01-08T03:09:32.467Z,2.8
2017-01-08T03:10:12.958Z,2.79
2017-01-08T03:10:53.436Z,2.75
2017-01-08T03:11:33.945Z,2.74
2017-01-08T03:12:14.439Z,2.77
2017-01-08T03:12:54.917Z,2.77
2017-01-08T03:13:35.416Z,2.72
2017-01-08T03:14:15.920Z,2.67
2017-01-08T03:14:56.390Z,2.72
2017-01-08T03:15:36.890Z,2.69
2017-01-08T03:16:17.385Z,2.71
2017-01-08T03:16:57.896Z,2.68
2017-01-08T03:17:38.339Z,2.67
2017-01-08T03:18:18.829Z,2.69
2017-01-08T03:18:59.300Z,2.64
2017-01-08T03:19:39.778Z,2.6
2017-01-08T03:20:20.260Z,2.74
2017-01-08T03:21:00.736Z,2.64
2017-01-08T03:21:41.221Z,2.67
2017-01-08T03:22:21.702Z,2.67
2017-01-08T03:23:02.216Z,2.6
2017-01-08T03:23:42.698Z,2.67
2017-01-08T03:24:23.186Z,2.67
2017-01-08T03:25:03.673Z,2.62
2017-01-08T03:25:44.159Z,2.71
2017-01-08T03:26:24.629Z,2.57
2017-01-08T03:27:05.121Z,2.61
2017-01-08T03:27:45.624Z,2.69
2017-01-08T03:28:26.118Z,2.68
2017-01-08T03:29:06.597Z,2.71
2017-01-08T03:29:47.074Z,2.53
2017-01-08T03:30:27.555Z,2.56
2017-01-08T03:31:08.042Z,2.64
2017-01-08T03:31:48.528Z,2.6
2017-01-08T03:32:29.014Z,2.57
2017-01-08T03:33:09.485Z,2.49
2017-01-08T03:33:49.978Z,2.65
2017-01-08T03:34:30.471Z,2.62
2017-01-08T03:35:10.964Z,2.57
2017-01-08T03:35:51.441Z,2.64
2017-01-08T03:36:31.950Z,2.65
2017-01-08T03:37:12.427Z,2.72
2017-01-08T03:37:52.919Z,2.64
2017-01-08T03:38:33.423Z,2.72
2017-01-08T03:39:13.909Z,2.67
2017-01-08T03:39:54.395Z,2.71
2017-01-08T03:40:34.893Z,2.62
2017-01-08T03:41:15.341Z,2.65
2017-01-08T03:41:55.850Z,2.72
2017-01-08T03:42:36.335Z,2.72
2017-01-08T03:43:16.792Z,2.72
2017-01-08T03:43:57.285Z,2.75
2017-01-08T03:44:37.764Z,2.77
2017-01-08T03:45:18.207Z,2.8
2017-01-08T03:45:58.692Z,2.82
2017-01-08T03:46:39.182Z,2.82
2017-01-08T03:47:19.639Z,2.86
2017-01-08T03:48:00.109Z,2.83
2017-01-08T03:48:40.593Z,2.93
2017-01-08T03:49:21.125Z,2.89
2017-01-08T03:50:01.630Z,2.85
2017-01-08T03:50:42.291Z,2.86
2017-01-08T03:51:22.757Z,2.92
2017-01-08T03:52:03.244Z,2.95
2017-01-08T03:52:43.760Z,2.89
2017-01-08T03:53:24.218Z,2.93
2017-01-08T03:54:04.721Z,2.95
2017-01-08T03:54:45.193Z,2.85
2017-01-08T03:55:25.690Z,2.95
2017-01-08T03:56:06.179Z,2.98
2017-01-08T03:56:46.695Z,2.98
2017-01-08T03:57:27.162Z,2.97
2017-01-08T03:58:07.635Z,2.87
2017-01-08T03:58:48.127Z,3.01
2017-01-08T03:59:28.636Z,3
2017-01-08T04:00:09.141Z,2.92
2017-01-08T04:00:49.634Z,2.86
2017-01-08T04:01:30.106Z,2.95
2017-01-08T04:02:10.603Z,3.04
2017-01-08T04:02:51.124Z,3.03
2017-01-08T04:03:31.626Z,3.04
2017-01-08T04:04:12.068Z,2.95
2017-01-08T04:04:52.573Z,2.86
2017-01-08T04:05:33.053Z,3.01
2017-01-08T04:06:13.542Z,2.98
2017-01-08T04:06:54.022Z,3
2017-01-08T04:07:34.495Z,3.03
2017-01-08T04:08:14.975Z,2.93
2017-01-08T04:08:55.429Z,3
2017-01-08T04:09:35.924Z,3.04
2017-01-08T04:10:16.418Z,3
2017-01-08T04:10:56.926Z,3.03
2017-01-08T04:11:37.373Z,3.04
2017-01-08T04:12:17.859Z,3.01
2017-01-08T04:12:58.331Z,3
2017-01-08T04:13:38.796Z,3
2017-01-08T04:14:19.290Z,3.01
2017-01-08T04:14:59.744Z,3.03
2017-01-08T04:15:40.221Z,3.04
2017-01-08T04:16:20.690Z,3.13
2017-01-08T04:17:01.195Z,3.08
2017-01-08T04:17:41.660Z,3.08
2017-01-08T04:18:22.156Z,3.1
2017-01-08T04:19:02.626Z,3.1
2017-01-08T04:19:43.112Z,3.08
2017-01-08T04:20:23.597Z,3.1
2017-01-08T04:21:04.061Z,3.13
2017-01-08T04:21:44.557Z,3.13
2017-01-08T04:22:25.047Z,3.04
2017-01-08T04:23:05.527Z,3.08
2017-01-08T04:23:46.007Z,3.1
2017-01-08T04:24:26.482Z,3.14
2017-01-08T04:25:06.978Z,3.1
2017-01-08T04:25:47.478Z,3.05
2017-01-08T04:26:27.928Z,3.05
2017-01-08T04:27:08.410Z,3.03
2017-01-08T04:27:48.914Z,3.04
2017-01-08T04:28:29.410Z,3.1
2017-01-08T04:29:09.881Z,3.08
2017-01-08T04:29:50.395Z,3.1
2017-01-08T04:30:30.864Z,3.1
2017-01-08T04:31:11.346Z,3.13
2017-01-08T04:31:51.807Z,3.07
2017-01-08T04:32:32.317Z,3.1
2017-01-08T04:33:12.776Z,3.1
2017-01-08T04:33:53.267Z,3.11
2017-01-08T04:34:33.734Z,3.13
2017-01-08T04:35:14.225Z,3.14
2017-01-08T04:35:54.727Z,3.05
2017-01-08T04:36:35.182Z,3.11
2017-01-08T04:37:15.667Z,3.16
2017-01-08T04:37:56.159Z,3.07
2017-01-08T04:38:36.619Z,3.07
2017-01-08T04:39:17.079Z,3.08
2017-01-08T04:39:57.594Z,3.16
2017-01-08T04:40:38.071Z,3.21
2017-01-08T04:41:18.549Z,3.18
2017-01-08T04:41:59.065Z,3.13
2017-01-08T04:42:39.524Z,3.19
2017-01-08T04:43:20.014Z,3.19
2017-01-08T04:44:00.481Z,3.11
2017-01-08T04:44:40.991Z,3.07
2017-01-08T04:45:21.470Z,3.11
2017-01-08T04:46:01.937Z,3.1
2017-01-08T04:46:42.432Z,3.08
2017-01-08T04:47:22.912Z,3.18
2017-01-08T04:48:03.380Z,3.18
2017-01-08T04:48:43.845Z,3.23
2017-01-08T04:49:24.322Z,3.11
2017-01-08T04:50:04.809Z,3.16
2017-01-08T04:50:45.294Z,3.1
2017-01-08T04:51:25.760Z,3.08
2017-01-08T04:52:06.253Z,3.18
2017-01-08T04:52:46.731Z,3.13
2017-01-08T04:53:27.203Z,3.16
2017-01-08T04:54:07.672Z,3.1
2017-01-08T04:54:48.155Z,3.08
2017-01-08T04:55:28.653Z,3.14
2017-01-08T04:56:09.133Z,3.08
2017-01-08T04:56:49.596Z,3.1
2017-01-08T04:57:30.092Z,3.13
2017-01-08T04:58:10.574Z,3.13
2017-01-08T04:58:51.067Z,3.1
2017-01-08T04:59:31.565Z,3.13
2017-01-08T05:00:12.069Z,3.13
2017-01-08T05:00:52.545Z,3.13
2017-01-08T05:01:33.015Z,3.1
2017-01-08T05:02:15.142Z,3.1
2017-01-08T05:02:55.594Z,3.1
2017-01-08T05:03:36.107Z,3.1
2017-01-08T05:04:16.601Z,3.08
2017-01-08T05:04:57.070Z,3.04
2017-01-08T05:05:37.522Z,3.05
2017-01-08T05:06:18.008Z,3.07
2017-01-08T05:06:58.493Z,3.03
2017-01-08T05:07:38.985Z,3.07
2017-01-08T05:08:19.455Z,3.05
2017-01-08T05:08:59.970Z,3.05
2017-01-08T05:09:40.451Z,3.07
2017-01-08T05:10:20.935Z,3.07
2017-01-08T05:11:01.435Z,3.07
2017-01-08T05:11:41.934Z,3.08
2017-01-08T05:12:22.425Z,3.03
2017-01-08T05:13:02.893Z,3.07
2017-01-08T05:13:43.374Z,3.01
2017-01-08T05:14:23.840Z,3.04
2017-01-08T05:15:04.338Z,3.03
2017-01-08T05:15:44.821Z,3.03
2017-01-08T05:16:25.301Z,3
2017-01-08T05:17:05.780Z,2.95
2017-01-08T05:17:46.259Z,3.03
2017-01-08T05:18:26.746Z,3.07
2017-01-08T05:19:07.225Z,3.04
2017-01-08T05:19:47.723Z,3.03
2017-01-08T05:20:28.200Z,3.03
2017-01-08T05:21:08.690Z,3.1
2017-01-08T05:21:49.148Z,3.05
2017-01-08T05:22:29.655Z,3.05
2017-01-08T05:23:10.121Z,3.05
2017-01-08T05:23:50.613Z,3.03
2017-01-08T05:24:31.098Z,3.05
2017-01-08T05:25:11.608Z,3.08
2017-01-08T05:25:52.095Z,3.1
2017-01-08T05:26:32.546Z,3.1
2017-01-08T05:27:13.029Z,3.1
2017-01-08T05:27:53.497Z,3.13
2017-01-08T05:28:34.011Z,3.04
2017-01-08T05:29:14.494Z,3.1
2017-01-08T05:29:55.002Z,3.08
2017-01-08T05:30:35.462Z,3.11
2017-01-08T05:31:15.958Z,3.1
2017-01-08T05:31:56.453Z,3.11
2017-01-08T05:32:36.931Z,3.08
2017-01-08T05:33:17.447Z,3.1
2017-01-08T05:33:57.938Z,3.08
2017-01-08T05:34:38.425Z,3.04
2017-01-08T05:35:18.924Z,3.04
2017-01-08T05:35:59.439Z,3
2017-01-08T05:36:39.912Z,3.07
2017-01-08T05:37:20.441Z,3.01
2017-01-08T05:38:00.904Z,3.03
2017-01-08T05:38:41.414Z,3.04
2017-01-08T05:39:21.896Z,2.97
2017-01-08T05:40:02.378Z,2.98
2017-01-08T05:40:42.855Z,2.9
2017-01-08T05:41:23.333Z,3
2017-01-08T05:42:03.830Z,2.93
2017-01-08T05:42:44.295Z,2.87
2017-01-08T05:43:24.777Z,2.95
2017-01-08T05:44:05.268Z,3
2017-01-08T05:44:45.757Z,3.03
2017-01-08T05:45:26.241Z,2.98
2017-01-08T05:46:06.723Z,3
2017-01-08T05:46:47.215Z,3.01
2017-01-08T05:47:27.695Z,3
2017-01-08T05:48:08.201Z,2.89
2017-01-08T05:48:48.664Z,2.97
2017-01-08T05:49:29.167Z,2.9
2017-01-08T05:50:09.635Z,2.87
2017-01-08T05:50:50.115Z,2.9
2017-01-08T05:51:30.606Z,2.92
2017-01-08T05:52:11.091Z,2.86
2017-01-08T05:52:51.579Z,2.89
2017-01-08T05:53:32.085Z,2.89
2017-01-08T05:54:12.552Z,2.87
2017-01-08T05:54:53.062Z,2.9
2017-01-08T05:55:33.557Z,2.87
2017-01-08T05:56:14.020Z,2.9
2017-01-08T05:56:54.503Z,2.89
2017-01-08T05:57:34.987Z,2.97
2017-01-08T05:58:15.470Z,2.92
2017-01-08T05:58:55.959Z,2.97
2017-01-08T05:59:36.447Z,2.87
2017-01-08T06:00:16.934Z,2.92
2017-01-08T06:00:57.413Z,2.89
2017-01-08T06:01:37.889Z,2.98
2017-01-08T06:02:18.380Z,3
2017-01-08T06:02:58.888Z,3.01
2017-01-08T06:03:39.396Z,3.01
2017-01-08T06:04:19.866Z,3
2017-01-08T06:05:00.362Z,2.95
2017-01-08T06:05:40.860Z,3.04
2017-01-08T06:06:21.313Z,3.03
2017-01-08T06:07:01.787Z,2.92
2017-01-08T06:07:42.287Z,2.95
2017-01-08T06:08:22.787Z,2.97
2017-01-08T06:09:03.290Z,3.01
2017-01-08T06:09:43.766Z,2.9
2017-01-08T06:10:24.246Z,2.92
2017-01-08T06:11:04.702Z,2.98
2017-01-08T06:11:45.200Z,2.98
2017-01-08T06:12:25.677Z,3.03
2017-01-08T06:13:06.154Z,3
2017-01-08T06:13:46.630Z,3.03
2017-01-08T06:14:27.145Z,3.1
2017-01-08T06:15:07.631Z,3.08
2017-01-08T06:15:48.123Z,3.1
2017-01-08T06:16:28.618Z,3.08
2017-01-08T06:17:09.106Z,3.05
2017-01-08T06:17:49.598Z,3.08
2017-01-08T06:18:30.102Z,3.03
2017-01-08T06:19:10.563Z,3.1
2017-01-08T06:19:51.018Z,3.13
2017-01-08T06:20:31.511Z,3.1
2017-01-08T06:21:11.994Z,3.13
2017-01-08T06:21:52.480Z,3.08
2017-01-08T06:22:32.944Z,3.11
2017-01-08T06:23:13.435Z,3.07
2017-01-08T06:23:53.955Z,3.14
2017-01-08T06:24:34.435Z,3.05
2017-01-08T06:25:14.903Z,3.08
2017-01-08T06:25:55.393Z,3.07
2017-01-08T06:26:35.870Z,3.1
2017-01-08T06:27:16.371Z,3.1
2017-01-08T06:27:56.853Z,3.07
2017-01-08T06:28:37.377Z,3.13
2017-01-08T06:29:17.873Z,3.04
2017-01-08T06:29:58.358Z,3.07
2017-01-08T06:30:38.838Z,3.11
2017-01-08T06:31:19.344Z,3.21
2017-01-08T06:31:59.828Z,3.21
2017-01-08T06:32:40.324Z,3.18
2017-01-08T06:33:20.810Z,3.28
2017-01-08T06:34:01.299Z,3.14
2017-01-08T06:34:41.794Z,3.19
2017-01-08T06:35:22.308Z,3.25
2017-01-08T06:36:02.759Z,3.19
2017-01-08T06:36:43.262Z,3.22
2017-01-08T06:37:23.753Z,3.19
2017-01-08T06:39:37.018Z,3.28
2017-01-08T06:40:17.452Z,3.19
2017-01-08T06:40:57.853Z,3.18
2017-01-08T06:41:38.344Z,3.28
2017-01-08T06:42:18.823Z,3.22
2017-01-08T06:42:59.299Z,3.22
2017-01-08T06:43:39.794Z,3.23
2017-01-08T06:44:20.275Z,3.18
2017-01-08T06:45:00.765Z,3.21
2017-01-08T06:45:41.226Z,3.21
2017-01-08T06:46:21.695Z,3.22
2017-01-08T06:47:02.179Z,3.22
2017-01-08T06:47:42.652Z,3.25
2017-01-08T06:48:23.144Z,3.23
2017-01-08T06:49:03.616Z,3.29
2017-01-08T06:49:44.127Z,3.28
2017-01-08T06:50:24.584Z,3.31
2017-01-08T06:51:05.048Z,3.26
2017-01-08T06:51:45.520Z,3.19
2017-01-08T06:52:25.993Z,3.18
2017-01-08T06:53:06.468Z,3.19
2017-01-08T06:53:46.993Z,3.22
2017-01-08T06:54:27.496Z,3.19
2017-01-08T06:55:07.994Z,3.22
2017-01-08T06:55:48.488Z,3.21
2017-01-08T06:56:28.967Z,3.29
2017-01-08T06:57:09.439Z,3.21
2017-01-08T06:57:49.956Z,3.26
2017-01-08T06:58:30.437Z,3.19
2017-01-08T06:59:10.950Z,3.19
2017-01-08T06:59:51.420Z,3.21
2017-01-08T07:00:31.926Z,3.18
2017-01-08T07:01:12.404Z,3.18
2017-01-08T07:01:52.883Z,3.26
2017-01-08T07:02:33.410Z,3.23
2017-01-08T07:03:13.904Z,3.18
2017-01-08T07:03:54.377Z,3.22
2017-01-08T07:04:34.858Z,3.13
2017-01-08T07:05:15.365Z,3.16
2017-01-08T07:05:55.853Z,3.28
2017-01-08T07:06:36.345Z,3.18
2017-01-08T07:07:16.847Z,3.25
2017-01-08T07:07:57.330Z,3.29
2017-01-08T07:08:37.797Z,3.29
2017-01-08T07:09:18.310Z,3.29
2017-01-08T07:09:58.783Z,3.18
2017-01-08T07:10:39.292Z,3.22
2017-01-08T07:11:19.782Z,3.32
2017-01-08T07:12:00.271Z,3.25
2017-01-08T07:12:40.761Z,3.41
2017-01-08T07:13:21.246Z,3.4
2017-01-08T07:14:01.752Z,3.34
2017-01-08T07:14:42.241Z,3.28
2017-01-08T07:15:22.711Z,3.37
2017-01-08T07:16:03.196Z,3.37
2017-01-08T07:16:43.675Z,3.32
2017-01-08T07:17:24.142Z,3.44
2017-01-08T07:18:04.624Z,3.4
2017-01-08T07:18:45.120Z,3.4
2017-01-08T07:19:25.571Z,3.41
2017-01-08T07:20:06.056Z,3.36
2017-01-08T07:20:46.495Z,3.42
2017-01-08T07:21:26.981Z,3.4
2017-01-08T07:22:07.471Z,3.4
2017-01-08T07:22:47.966Z,3.37
2017-01-08T07:23:28.444Z,3.37
2017-01-08T07:24:08.933Z,3.4
2017-01-08T07:24:49.432Z,3.44
2017-01-08T07:25:29.922Z,3.4
2017-01-08T07:26:10.391Z,3.42
2017-01-08T07:26:50.870Z,3.42
2017-01-08T07:27:31.366Z,3.34
2017-01-08T07:28:11.838Z,3.45
2017-01-08T07:28:52.323Z,3.28
2017-01-08T07:29:32.793Z,3.34
2017-01-08T07:30:13.293Z,3.41
2017-01-08T07:30:53.756Z,3.44
2017-01-08T07:31:34.251Z,3.47
2017-01-08T07:32:14.743Z,3.45
2017-01-08T07:32:55.237Z,3.34
2017-01-08T07:33:35.765Z,3.41
2017-01-08T07:34:16.261Z,3.4
2017-01-08T07:34:56.766Z,3.4
2017-01-08T07:35:37.250Z,3.41
2017-01-08T07:36:17.716Z,3.34
2017-01-08T07:36:58.199Z,3.48
2017-01-08T07:37:38.694Z,3.37
2017-01-08T07:38:19.183Z,3.36
2017-01-08T07:38:59.665Z,3.31
2017-01-08T07:39:40.144Z,3.32
2017-01-08T07:40:20.645Z,3.37
2017-01-08T07:41:01.141Z,3.32
2017-01-08T07:41:41.625Z,3.31
2017-01-08T07:42:22.125Z,3.31
2017-01-08T07:43:02.608Z,3.32
2017-01-08T07:43:43.105Z,3.44
2017-01-08T07:44:23.620Z,3.32
2017-01-08T07:45:04.089Z,3.41
2017-01-08T07:45:44.585Z,3.31
2017-01-08T07:46:25.070Z,3.29
2017-01-08T07:47:05.564Z,3.29
2017-01-08T07:47:46.046Z,3.4
2017-01-08T07:48:26.551Z,3.26
2017-01-08T07:49:07.059Z,3.29
2017-01-08T07:49:47.541Z,3.25
2017-01-08T07:50:28.017Z,3.26
2017-01-08T07:51:08.508Z,3.25
2017-01-08T07:51:48.996Z,3.22
2017-01-08T07:52:29.509Z,3.29
2017-01-08T07:53:10.082Z,3.19
2017-01-08T07:53:50.590Z,3.28
2017-01-08T07:54:31.148Z,3.32
2017-01-08T07:55:11.623Z,3.29
2017-01-08T07:55:52.239Z,3.29
2017-01-08T07:56:32.703Z,3.26
2017-01-08T07:57:13.264Z,3.4
2017-01-08T07:57:53.761Z,3.32
2017-01-08T07:58:34.257Z,3.26
2017-01-08T07:59:14.798Z,3.28
2017-01-08T07:59:55.345Z,3.31
2017-01-08T08:00:35.839Z,3.34
2017-01-08T08:01:16.415Z,3.28
2017-01-08T08:01:56.935Z,3.31
2017-01-08T08:02:37.527Z,3.31
2017-01-08T08:03:17.969Z,3.29
2017-01-08T08:03:58.457Z,3.32
2017-01-08T08:04:38.960Z,3.36
2017-01-08T08:05:19.483Z,3.44
2017-01-08T08:05:59.918Z,3.31
2017-01-08T08:06:41.024Z,3.34
2017-01-08T08:07:21.539Z,3.31
2017-01-08T08:08:02.040Z,3.41
2017-01-08T08:08:42.629Z,3.37
2017-01-08T08:09:23.144Z,3.37
2017-01-08T08:10:03.624Z,3.4
2017-01-08T08:10:44.111Z,3.32
2017-01-08T08:11:24.590Z,3.31
2017-01-08T08:12:05.087Z,3.34
2017-01-08T08:12:45.562Z,3.4
2017-01-08T08:13:26.052Z,3.32
2017-01-08T08:14:06.574Z,3.29
2017-01-08T08:14:47.092Z,3.41
2017-01-08T08:15:27.592Z,3.4
2017-01-08T08:16:08.167Z,3.31
2017-01-08T08:16:48.640Z,3.4
2017-01-08T08:17:29.126Z,3.37
2017-01-08T08:18:09.620Z,3.29
2017-01-08T08:18:50.099Z,3.32
2017-01-08T08:19:30.596Z,3.4
2017-01-08T08:20:11.127Z,3.42
2017-01-08T08:20:51.596Z,3.36
2017-01-08T08:21:32.148Z,3.34
2017-01-08T08:22:12.655Z,3.36
2017-01-08T08:22:53.152Z,3.29
2017-01-08T08:23:33.681Z,3.5
2017-01-08T08:24:14.148Z,3.44
2017-01-08T08:24:54.612Z,3.44
2017-01-08T08:25:35.084Z,3.4
2017-01-08T08:26:15.583Z,3.47
2017-01-08T08:26:56.084Z,3.41
2017-01-08T08:27:36.604Z,3.45
2017-01-08T08:28:17.091Z,3.47
2017-01-08T08:28:57.577Z,3.41
2017-01-08T08:29:38.057Z,3.36
2017-01-08T08:30:18.553Z,3.31
2017-01-08T08:30:59.010Z,3.37
2017-01-08T08:31:39.506Z,3.37
2017-01-08T08:32:20.003Z,3.44
2017-01-08T08:33:00.479Z,3.36
2017-01-08T08:33:40.945Z,3.29
2017-01-08T08:34:21.464Z,3.42
2017-01-08T08:35:01.948Z,3.48
2017-01-08T08:35:42.420Z,3.37
2017-01-08T08:36:22.871Z,3.34
2017-01-08T08:37:03.372Z,3.28
2017-01-08T08:37:43.867Z,3.42
2017-01-08T08:38:24.343Z,3.36
2017-01-08T08:39:04.826Z,3.34
2017-01-08T08:39:45.318Z,3.42
2017-01-08T08:40:25.809Z,3.45
2017-01-08T08:41:06.278Z,3.42
2017-01-08T08:41:46.770Z,3.44
2017-01-08T08:42:27.273Z,3.34
2017-01-08T08:43:07.739Z,3.36
2017-01-08T08:43:48.227Z,3.4
2017-01-08T08:44:28.736Z,3.47
2017-01-08T08:45:09.223Z,3.5
2017-01-08T08:45:49.703Z,3.53
2017-01-08T08:46:30.182Z,3.51
2017-01-08T08:47:10.649Z,3.59
2017-01-08T08:47:51.149Z,3.5
2017-01-08T08:48:31.629Z,3.56
2017-01-08T08:49:12.122Z,3.59
2017-01-08T08:49:52.599Z,3.53
2017-01-08T08:50:33.059Z,3.5
2017-01-08T08:51:13.558Z,3.53
2017-01-08T08:51:54.025Z,3.51
2017-01-08T08:52:34.537Z,3.47
2017-01-08T08:53:14.995Z,3.59
2017-01-08T08:53:55.498Z,3.51
2017-01-08T08:54:35.982Z,3.58
2017-01-08T08:55:16.464Z,3.58
2017-01-08T08:55:56.956Z,3.59
2017-01-08T08:56:37.520Z,3.6
2017-01-08T08:57:18.019Z,3.6
2017-01-08T08:57:58.512Z,3.6
2017-01-08T08:58:39.002Z,3.59
2017-01-08T08:59:19.492Z,3.53
2017-01-08T08:59:59.994Z,3.53
2017-01-08T09:00:40.490Z,3.69
2017-01-08T09:01:20.962Z,3.58
2017-01-08T09:02:01.462Z,3.63
2017-01-08T09:02:41.941Z,3.6
2017-01-08T09:03:22.403Z,3.58
2017-01-08T09:04:02.887Z,3.65
2017-01-08T09:04:43.354Z,3.7